sensor_id;sensor_type;location;lat;lon;timestamp;P1;durP1;ratioP1;P2;durP2;ratioP2
4517;SDS011;2271;49.464;11.070;2024-02-15T00:02:14;5.57;;;4.20;;
4517;SDS011;2271;49.464;11.070;2024-02-15T00:04:40;4.60;;;3.83;;
4517;SDS011;2271;49.464;11.070;2024-02-15T00:07:05;5.10;;;3.97;;
4517;SDS011;2271;49.464;11.070;2024-02-15T00:09:31;4.80;;;3.37;;
4517;SDS011;2271;49.464;11.070;2024-02-15T00:11:57;5.50;;;3.57;;
4517;SDS011;2271;49.464;11.070;2024-02-15T00:14:25;6.17;;;3.93;;
4517;SDS011;2271;49.464;11.070;2024-02-15T00:16:52;5.40;;;3.57;;
4517;SDS011;2271;49.464;11.070;2024-02-15T00:19:18;4.30;;;3.53;;
4517;SDS011;2271;49.464;11.070;2024-02-15T00:21:44;4.13;;;3.40;;
4517;SDS011;2271;49.464;11.070;2024-02-15T00:24:10;6.93;;;4.70;;
4517;SDS011;2271;49.464;11.070;2024-02-15T00:26:36;4.80;;;3.83;;
4517;SDS011;2271;49.464;11.070;2024-02-15T00:29:02;4.80;;;4.17;;
4517;SDS011;2271;49.464;11.070;2024-02-15T00:31:27;4.20;;;3.27;;
4517;SDS011;2271;49.464;11.070;2024-02-15T00:33:53;4.90;;;3.67;;
4517;SDS011;2271;49.464;11.070;2024-02-15T00:36:20;8.20;;;3.67;;
4517;SDS011;2271;49.464;11.070;2024-02-15T00:38:45;5.73;;;3.37;;
4517;SDS011;2271;49.464;11.070;2024-02-15T00:41:11;9.40;;;4.37;;
4517;SDS011;2271;49.464;11.070;2024-02-15T00:43:37;5.53;;;4.03;;
4517;SDS011;2271;49.464;11.070;2024-02-15T00:46:03;4.60;;;3.50;;
4517;SDS011;2271;49.464;11.070;2024-02-15T00:48:28;4.17;;;3.40;;
4517;SDS011;2271;49.464;11.070;2024-02-15T00:50:55;4.90;;;3.57;;
4517;SDS011;2271;49.464;11.070;2024-02-15T00:53:21;7.57;;;3.40;;
4517;SDS011;2271;49.464;11.070;2024-02-15T00:55:47;6.30;;;3.47;;
4517;SDS011;2271;49.464;11.070;2024-02-15T00:58:12;6.10;;;3.50;;
4517;SDS011;2271;49.464;11.070;2024-02-15T01:00:38;3.97;;;3.23;;
4517;SDS011;2271;49.464;11.070;2024-02-15T01:03:04;5.93;;;3.53;;
4517;SDS011;2271;49.464;11.070;2024-02-15T01:05:29;4.17;;;3.20;;
4517;SDS011;2271;49.464;11.070;2024-02-15T01:07:55;6.47;;;3.27;;
4517;SDS011;2271;49.464;11.070;2024-02-15T01:10:21;4.27;;;3.13;;
4517;SDS011;2271;49.464;11.070;2024-02-15T01:12:49;5.53;;;3.37;;
4517;SDS011;2271;49.464;11.070;2024-02-15T01:15:14;5.53;;;3.37;;
4517;SDS011;2271;49.464;11.070;2024-02-15T01:17:45;6.23;;;3.47;;
4517;SDS011;2271;49.464;11.070;2024-02-15T01:20:10;5.70;;;3.37;;
4517;SDS011;2271;49.464;11.070;2024-02-15T01:22:36;3.87;;;3.13;;
4517;SDS011;2271;49.464;11.070;2024-02-15T01:25:02;3.73;;;3.33;;
4517;SDS011;2271;49.464;11.070;2024-02-15T01:27:28;3.30;;;2.97;;
4517;SDS011;2271;49.464;11.070;2024-02-15T01:29:55;3.37;;;2.90;;
4517;SDS011;2271;49.464;11.070;2024-02-15T01:32:21;4.30;;;3.13;;
4517;SDS011;2271;49.464;11.070;2024-02-15T01:34:47;5.23;;;2.97;;
4517;SDS011;2271;49.464;11.070;2024-02-15T01:37:13;3.53;;;2.87;;
4517;SDS011;2271;49.464;11.070;2024-02-15T01:39:39;4.47;;;2.83;;
4517;SDS011;2271;49.464;11.070;2024-02-15T01:42:05;6.30;;;2.87;;
4517;SDS011;2271;49.464;11.070;2024-02-15T01:44:31;3.13;;;2.63;;
4517;SDS011;2271;49.464;11.070;2024-02-15T01:46:56;3.40;;;3.10;;
4517;SDS011;2271;49.464;11.070;2024-02-15T01:49:23;5.33;;;3.53;;
4517;SDS011;2271;49.464;11.070;2024-02-15T01:51:52;3.93;;;3.13;;
4517;SDS011;2271;49.464;11.070;2024-02-15T01:54:21;4.90;;;3.57;;
4517;SDS011;2271;49.464;11.070;2024-02-15T01:56:48;5.13;;;3.60;;
4517;SDS011;2271;49.464;11.070;2024-02-15T01:59:17;4.30;;;3.27;;
4517;SDS011;2271;49.464;11.070;2024-02-15T02:01:44;4.10;;;3.20;;
4517;SDS011;2271;49.464;11.070;2024-02-15T02:04:10;3.47;;;3.17;;
4517;SDS011;2271;49.464;11.070;2024-02-15T02:06:38;3.60;;;3.20;;
4517;SDS011;2271;49.464;11.070;2024-02-15T02:09:05;5.50;;;3.60;;
4517;SDS011;2271;49.464;11.070;2024-02-15T02:11:35;5.20;;;3.93;;
4517;SDS011;2271;49.464;11.070;2024-02-15T02:14:00;5.27;;;3.87;;
4517;SDS011;2271;49.464;11.070;2024-02-15T02:16:29;4.23;;;3.43;;
4517;SDS011;2271;49.464;11.070;2024-02-15T02:19:00;6.23;;;3.50;;
4517;SDS011;2271;49.464;11.070;2024-02-15T02:21:26;7.03;;;4.00;;
4517;SDS011;2271;49.464;11.070;2024-02-15T02:23:55;4.57;;;3.57;;
4517;SDS011;2271;49.464;11.070;2024-02-15T02:26:22;4.00;;;3.57;;
4517;SDS011;2271;49.464;11.070;2024-02-15T02:28:49;4.43;;;3.43;;
4517;SDS011;2271;49.464;11.070;2024-02-15T02:31:15;4.47;;;3.77;;
4517;SDS011;2271;49.464;11.070;2024-02-15T02:33:41;4.30;;;3.90;;
4517;SDS011;2271;49.464;11.070;2024-02-15T02:36:12;5.70;;;4.07;;
4517;SDS011;2271;49.464;11.070;2024-02-15T02:38:37;6.20;;;3.97;;
4517;SDS011;2271;49.464;11.070;2024-02-15T02:41:03;6.50;;;3.83;;
4517;SDS011;2271;49.464;11.070;2024-02-15T02:43:29;6.63;;;4.13;;
4517;SDS011;2271;49.464;11.070;2024-02-15T02:45:55;5.43;;;3.73;;
4517;SDS011;2271;49.464;11.070;2024-02-15T02:48:20;4.83;;;4.23;;
4517;SDS011;2271;49.464;11.070;2024-02-15T02:50:47;4.33;;;3.90;;
4517;SDS011;2271;49.464;11.070;2024-02-15T02:53:13;4.13;;;3.40;;
4517;SDS011;2271;49.464;11.070;2024-02-15T02:55:40;9.00;;;4.70;;
4517;SDS011;2271;49.464;11.070;2024-02-15T02:58:06;6.20;;;5.50;;
4517;SDS011;2271;49.464;11.070;2024-02-15T03:00:33;5.67;;;4.13;;
4517;SDS011;2271;49.464;11.070;2024-02-15T03:02:59;5.80;;;3.70;;
4517;SDS011;2271;49.464;11.070;2024-02-15T03:05:25;7.13;;;4.17;;
4517;SDS011;2271;49.464;11.070;2024-02-15T03:07:51;4.67;;;3.80;;
4517;SDS011;2271;49.464;11.070;2024-02-15T03:10:17;4.90;;;3.93;;
4517;SDS011;2271;49.464;11.070;2024-02-15T03:12:43;5.00;;;4.03;;
4517;SDS011;2271;49.464;11.070;2024-02-15T03:15:11;4.97;;;4.43;;
4517;SDS011;2271;49.464;11.070;2024-02-15T03:17:41;4.23;;;3.57;;
4517;SDS011;2271;49.464;11.070;2024-02-15T03:20:08;3.97;;;3.53;;
4517;SDS011;2271;49.464;11.070;2024-02-15T03:22:57;4.97;;;4.10;;
4517;SDS011;2271;49.464;11.070;2024-02-15T03:25:24;4.40;;;3.67;;
4517;SDS011;2271;49.464;11.070;2024-02-15T03:27:54;5.03;;;3.50;;
4517;SDS011;2271;49.464;11.070;2024-02-15T03:30:21;4.40;;;3.70;;
4517;SDS011;2271;49.464;11.070;2024-02-15T03:32:51;7.50;;;3.37;;
4517;SDS011;2271;49.464;11.070;2024-02-15T03:35:18;4.93;;;3.83;;
4517;SDS011;2271;49.464;11.070;2024-02-15T03:37:45;8.60;;;3.93;;
4517;SDS011;2271;49.464;11.070;2024-02-15T03:40:11;5.53;;;4.07;;
4517;SDS011;2271;49.464;11.070;2024-02-15T03:42:37;4.63;;;2.80;;
4517;SDS011;2271;49.464;11.070;2024-02-15T03:45:06;4.57;;;3.53;;
4517;SDS011;2271;49.464;11.070;2024-02-15T03:47:33;5.87;;;3.43;;
4517;SDS011;2271;49.464;11.070;2024-02-15T03:49:59;4.90;;;3.37;;
4517;SDS011;2271;49.464;11.070;2024-02-15T03:52:25;4.03;;;3.40;;
4517;SDS011;2271;49.464;11.070;2024-02-15T03:54:50;3.87;;;3.53;;
4517;SDS011;2271;49.464;11.070;2024-02-15T03:57:17;4.37;;;3.23;;
4517;SDS011;2271;49.464;11.070;2024-02-15T03:59:45;7.50;;;3.30;;
4517;SDS011;2271;49.464;11.070;2024-02-15T04:02:15;4.20;;;3.30;;
4517;SDS011;2271;49.464;11.070;2024-02-15T04:04:41;4.50;;;3.60;;
4517;SDS011;2271;49.464;11.070;2024-02-15T04:07:08;3.43;;;3.07;;
4517;SDS011;2271;49.464;11.070;2024-02-15T04:09:35;4.97;;;3.17;;
4517;SDS011;2271;49.464;11.070;2024-02-15T04:12:01;3.97;;;3.17;;
4517;SDS011;2271;49.464;11.070;2024-02-15T04:14:27;5.00;;;3.10;;
4517;SDS011;2271;49.464;11.070;2024-02-15T04:16:53;3.80;;;3.50;;
4517;SDS011;2271;49.464;11.070;2024-02-15T04:19:18;3.80;;;2.47;;
4517;SDS011;2271;49.464;11.070;2024-02-15T04:21:45;3.73;;;3.27;;
4517;SDS011;2271;49.464;11.070;2024-02-15T04:24:12;3.17;;;2.87;;
4517;SDS011;2271;49.464;11.070;2024-02-15T04:26:38;3.63;;;3.33;;
4517;SDS011;2271;49.464;11.070;2024-02-15T04:29:03;4.00;;;3.27;;
4517;SDS011;2271;49.464;11.070;2024-02-15T04:31:29;3.97;;;3.30;;
4517;SDS011;2271;49.464;11.070;2024-02-15T04:33:56;3.33;;;2.90;;
4517;SDS011;2271;49.464;11.070;2024-02-15T04:36:22;4.73;;;3.13;;
4517;SDS011;2271;49.464;11.070;2024-02-15T04:38:51;4.43;;;2.80;;
4517;SDS011;2271;49.464;11.070;2024-02-15T04:41:18;2.67;;;2.47;;
4517;SDS011;2271;49.464;11.070;2024-02-15T04:43:50;9.63;;;2.80;;
4517;SDS011;2271;49.464;11.070;2024-02-15T04:46:16;2.93;;;2.67;;
4517;SDS011;2271;49.464;11.070;2024-02-15T04:48:42;3.67;;;3.10;;
4517;SDS011;2271;49.464;11.070;2024-02-15T04:51:08;4.83;;;3.33;;
4517;SDS011;2271;49.464;11.070;2024-02-15T04:53:35;4.20;;;2.80;;
4517;SDS011;2271;49.464;11.070;2024-02-15T04:56:03;3.60;;;2.83;;
4517;SDS011;2271;49.464;11.070;2024-02-15T04:58:34;3.43;;;3.13;;
4517;SDS011;2271;49.464;11.070;2024-02-15T05:01:01;2.97;;;2.63;;
4517;SDS011;2271;49.464;11.070;2024-02-15T05:03:30;3.97;;;3.20;;
4517;SDS011;2271;49.464;11.070;2024-02-15T05:06:00;3.63;;;2.90;;
4517;SDS011;2271;49.464;11.070;2024-02-15T05:08:26;3.93;;;3.10;;
4517;SDS011;2271;49.464;11.070;2024-02-15T05:10:53;4.63;;;3.13;;
4517;SDS011;2271;49.464;11.070;2024-02-15T05:13:24;5.80;;;3.20;;
4517;SDS011;2271;49.464;11.070;2024-02-15T05:15:50;3.57;;;3.07;;
4517;SDS011;2271;49.464;11.070;2024-02-15T05:18:16;3.50;;;3.00;;
4517;SDS011;2271;49.464;11.070;2024-02-15T05:20:42;6.43;;;3.00;;
4517;SDS011;2271;49.464;11.070;2024-02-15T05:23:08;5.70;;;2.80;;
4517;SDS011;2271;49.464;11.070;2024-02-15T05:25:33;7.07;;;3.13;;
4517;SDS011;2271;49.464;11.070;2024-02-15T05:28:00;3.93;;;3.17;;
4517;SDS011;2271;49.464;11.070;2024-02-15T05:30:26;6.83;;;3.70;;
4517;SDS011;2271;49.464;11.070;2024-02-15T05:32:52;4.17;;;2.90;;
4517;SDS011;2271;49.464;11.070;2024-02-15T05:35:18;4.90;;;3.50;;
4517;SDS011;2271;49.464;11.070;2024-02-15T05:37:44;6.60;;;3.30;;
4517;SDS011;2271;49.464;11.070;2024-02-15T05:40:11;4.10;;;3.27;;
4517;SDS011;2271;49.464;11.070;2024-02-15T05:42:40;4.30;;;3.20;;
4517;SDS011;2271;49.464;11.070;2024-02-15T05:47:49;5.30;;;3.03;;
4517;SDS011;2271;49.464;11.070;2024-02-15T05:50:14;4.43;;;3.10;;
4517;SDS011;2271;49.464;11.070;2024-02-15T05:52:40;4.83;;;3.03;;
4517;SDS011;2271;49.464;11.070;2024-02-15T05:55:06;4.37;;;3.00;;
4517;SDS011;2271;49.464;11.070;2024-02-15T05:57:32;5.57;;;3.13;;
4517;SDS011;2271;49.464;11.070;2024-02-15T05:59:58;6.60;;;3.30;;
4517;SDS011;2271;49.464;11.070;2024-02-15T06:02:27;4.30;;;3.30;;
4517;SDS011;2271;49.464;11.070;2024-02-15T06:04:53;3.27;;;2.97;;
4517;SDS011;2271;49.464;11.070;2024-02-15T06:07:19;4.60;;;4.17;;
4517;SDS011;2271;49.464;11.070;2024-02-15T06:09:45;5.83;;;3.10;;
4517;SDS011;2271;49.464;11.070;2024-02-15T06:12:11;5.33;;;3.67;;
4517;SDS011;2271;49.464;11.070;2024-02-15T06:14:37;5.63;;;3.73;;
4517;SDS011;2271;49.464;11.070;2024-02-15T06:17:02;3.80;;;2.70;;
4517;SDS011;2271;49.464;11.070;2024-02-15T06:19:28;5.23;;;3.33;;
4517;SDS011;2271;49.464;11.070;2024-02-15T06:21:53;8.40;;;3.77;;
4517;SDS011;2271;49.464;11.070;2024-02-15T06:24:19;5.77;;;3.77;;
4517;SDS011;2271;49.464;11.070;2024-02-15T06:26:45;5.33;;;4.07;;
4517;SDS011;2271;49.464;11.070;2024-02-15T06:29:11;6.83;;;3.70;;
4517;SDS011;2271;49.464;11.070;2024-02-15T06:31:55;8.73;;;3.27;;
4517;SDS011;2271;49.464;11.070;2024-02-15T06:34:39;4.07;;;3.30;;
4517;SDS011;2271;49.464;11.070;2024-02-15T06:37:36;6.13;;;3.27;;
4517;SDS011;2271;49.464;11.070;2024-02-15T06:40:21;5.53;;;3.73;;
4517;SDS011;2271;49.464;11.070;2024-02-15T06:42:47;6.67;;;3.83;;
4517;SDS011;2271;49.464;11.070;2024-02-15T06:45:13;5.47;;;3.07;;
4517;SDS011;2271;49.464;11.070;2024-02-15T06:47:42;7.43;;;3.13;;
4517;SDS011;2271;49.464;11.070;2024-02-15T06:50:11;5.40;;;3.50;;
4517;SDS011;2271;49.464;11.070;2024-02-15T06:52:38;3.90;;;2.80;;
4517;SDS011;2271;49.464;11.070;2024-02-15T06:55:08;4.60;;;2.93;;
4517;SDS011;2271;49.464;11.070;2024-02-15T06:57:39;4.53;;;3.53;;
4517;SDS011;2271;49.464;11.070;2024-02-15T07:00:06;5.67;;;3.47;;
4517;SDS011;2271;49.464;11.070;2024-02-15T07:02:35;6.63;;;4.87;;
4517;SDS011;2271;49.464;11.070;2024-02-15T07:05:01;5.90;;;3.43;;
4517;SDS011;2271;49.464;11.070;2024-02-15T07:07:30;5.73;;;3.20;;
4517;SDS011;2271;49.464;11.070;2024-02-15T07:09:57;4.30;;;3.67;;
4517;SDS011;2271;49.464;11.070;2024-02-15T07:12:22;4.37;;;3.30;;
4517;SDS011;2271;49.464;11.070;2024-02-15T07:14:48;4.53;;;3.10;;
4517;SDS011;2271;49.464;11.070;2024-02-15T07:17:14;7.20;;;3.67;;
4517;SDS011;2271;49.464;11.070;2024-02-15T07:19:43;5.13;;;3.40;;
4517;SDS011;2271;49.464;11.070;2024-02-15T07:22:09;5.53;;;3.40;;
4517;SDS011;2271;49.464;11.070;2024-02-15T07:24:35;6.90;;;3.73;;
4517;SDS011;2271;49.464;11.070;2024-02-15T07:27:03;4.67;;;3.10;;
4517;SDS011;2271;49.464;11.070;2024-02-15T07:29:29;7.77;;;3.50;;
4517;SDS011;2271;49.464;11.070;2024-02-15T07:31:57;6.47;;;3.43;;
4517;SDS011;2271;49.464;11.070;2024-02-15T07:34:29;4.77;;;3.40;;
4517;SDS011;2271;49.464;11.070;2024-02-15T07:36:55;5.00;;;3.17;;
4517;SDS011;2271;49.464;11.070;2024-02-15T07:39:23;4.83;;;3.20;;
4517;SDS011;2271;49.464;11.070;2024-02-15T07:41:52;3.63;;;2.97;;
4517;SDS011;2271;49.464;11.070;2024-02-15T07:44:17;4.97;;;2.97;;
4517;SDS011;2271;49.464;11.070;2024-02-15T07:46:43;4.00;;;3.03;;
4517;SDS011;2271;49.464;11.070;2024-02-15T07:49:09;6.07;;;3.67;;
4517;SDS011;2271;49.464;11.070;2024-02-15T07:51:34;4.43;;;2.70;;
4517;SDS011;2271;49.464;11.070;2024-02-15T07:54:01;5.17;;;3.13;;
4517;SDS011;2271;49.464;11.070;2024-02-15T07:56:26;3.87;;;2.70;;
4517;SDS011;2271;49.464;11.070;2024-02-15T07:58:52;4.40;;;3.13;;
4517;SDS011;2271;49.464;11.070;2024-02-15T08:01:18;5.40;;;2.90;;
4517;SDS011;2271;49.464;11.070;2024-02-15T08:03:46;4.37;;;3.03;;
4517;SDS011;2271;49.464;11.070;2024-02-15T08:06:13;6.27;;;2.83;;
4517;SDS011;2271;49.464;11.070;2024-02-15T08:08:41;4.70;;;2.80;;
4517;SDS011;2271;49.464;11.070;2024-02-15T08:11:11;4.33;;;2.77;;
4517;SDS011;2271;49.464;11.070;2024-02-15T08:13:46;6.17;;;3.57;;
4517;SDS011;2271;49.464;11.070;2024-02-15T08:16:19;5.07;;;2.67;;
4517;SDS011;2271;49.464;11.070;2024-02-15T08:18:47;4.30;;;3.20;;
4517;SDS011;2271;49.464;11.070;2024-02-15T08:21:17;3.53;;;3.00;;
4517;SDS011;2271;49.464;11.070;2024-02-15T08:23:49;4.83;;;3.53;;
4517;SDS011;2271;49.464;11.070;2024-02-15T08:26:15;6.90;;;3.83;;
4517;SDS011;2271;49.464;11.070;2024-02-15T08:28:41;5.83;;;2.90;;
4517;SDS011;2271;49.464;11.070;2024-02-15T08:31:07;4.47;;;3.70;;
4517;SDS011;2271;49.464;11.070;2024-02-15T08:33:35;3.80;;;2.70;;
4517;SDS011;2271;49.464;11.070;2024-02-15T08:36:03;7.47;;;3.23;;
4517;SDS011;2271;49.464;11.070;2024-02-15T08:38:30;4.03;;;2.80;;
4517;SDS011;2271;49.464;11.070;2024-02-15T08:40:56;4.43;;;2.93;;
4517;SDS011;2271;49.464;11.070;2024-02-15T08:43:21;4.50;;;3.00;;
4517;SDS011;2271;49.464;11.070;2024-02-15T08:45:48;6.57;;;3.10;;
4517;SDS011;2271;49.464;11.070;2024-02-15T08:48:15;5.87;;;3.40;;
4517;SDS011;2271;49.464;11.070;2024-02-15T08:50:41;5.23;;;2.70;;
4517;SDS011;2271;49.464;11.070;2024-02-15T08:53:06;4.00;;;3.00;;
4517;SDS011;2271;49.464;11.070;2024-02-15T08:55:32;7.43;;;2.80;;
4517;SDS011;2271;49.464;11.070;2024-02-15T08:58:00;6.83;;;2.80;;
4517;SDS011;2271;49.464;11.070;2024-02-15T09:00:27;3.97;;;2.70;;
4517;SDS011;2271;49.464;11.070;2024-02-15T09:02:53;3.47;;;3.17;;
4517;SDS011;2271;49.464;11.070;2024-02-15T09:05:19;3.77;;;2.33;;
4517;SDS011;2271;49.464;11.070;2024-02-15T09:07:47;8.20;;;3.10;;
4517;SDS011;2271;49.464;11.070;2024-02-15T09:10:13;4.27;;;2.87;;
4517;SDS011;2271;49.464;11.070;2024-02-15T09:12:40;4.73;;;2.70;;
4517;SDS011;2271;49.464;11.070;2024-02-15T09:15:07;6.33;;;2.57;;
4517;SDS011;2271;49.464;11.070;2024-02-15T09:17:34;5.10;;;3.30;;
4517;SDS011;2271;49.464;11.070;2024-02-15T09:20:07;4.47;;;2.50;;
4517;SDS011;2271;49.464;11.070;2024-02-15T09:22:34;3.50;;;2.97;;
4517;SDS011;2271;49.464;11.070;2024-02-15T09:25:01;3.63;;;2.97;;
4517;SDS011;2271;49.464;11.070;2024-02-15T09:27:27;5.07;;;2.77;;
4517;SDS011;2271;49.464;11.070;2024-02-15T09:29:53;2.57;;;2.37;;
4517;SDS011;2271;49.464;11.070;2024-02-15T09:32:20;3.97;;;2.60;;
4517;SDS011;2271;49.464;11.070;2024-02-15T09:34:47;3.87;;;2.13;;
4517;SDS011;2271;49.464;11.070;2024-02-15T09:37:13;3.30;;;2.37;;
4517;SDS011;2271;49.464;11.070;2024-02-15T09:39:39;4.73;;;2.63;;
4517;SDS011;2271;49.464;11.070;2024-02-15T09:42:05;4.50;;;2.50;;
4517;SDS011;2271;49.464;11.070;2024-02-15T09:44:31;2.97;;;2.30;;
4517;SDS011;2271;49.464;11.070;2024-02-15T09:47:03;5.75;;;2.65;;
4517;SDS011;2271;49.464;11.070;2024-02-15T09:49:33;4.80;;;2.17;;
4517;SDS011;2271;49.464;11.070;2024-02-15T09:52:06;3.40;;;2.30;;
4517;SDS011;2271;49.464;11.070;2024-02-15T09:54:41;6.40;;;2.70;;
4517;SDS011;2271;49.464;11.070;2024-02-15T09:57:08;6.00;;;3.33;;
4517;SDS011;2271;49.464;11.070;2024-02-15T09:59:35;4.50;;;2.57;;
4517;SDS011;2271;49.464;11.070;2024-02-15T10:02:02;4.80;;;3.13;;
4517;SDS011;2271;49.464;11.070;2024-02-15T10:04:28;7.20;;;3.23;;
4517;SDS011;2271;49.464;11.070;2024-02-15T10:06:54;4.80;;;2.73;;
4517;SDS011;2271;49.464;11.070;2024-02-15T10:09:26;4.43;;;2.33;;
4517;SDS011;2271;49.464;11.070;2024-02-15T10:11:54;3.17;;;2.70;;
4517;SDS011;2271;49.464;11.070;2024-02-15T10:14:21;5.37;;;2.67;;
4517;SDS011;2271;49.464;11.070;2024-02-15T10:16:47;5.70;;;2.37;;
4517;SDS011;2271;49.464;11.070;2024-02-15T10:19:13;6.17;;;2.70;;
4517;SDS011;2271;49.464;11.070;2024-02-15T10:21:40;6.03;;;2.80;;
4517;SDS011;2271;49.464;11.070;2024-02-15T10:24:06;5.75;;;2.83;;
4517;SDS011;2271;49.464;11.070;2024-02-15T10:26:34;9.40;;;2.20;;
4517;SDS011;2271;49.464;11.070;2024-02-15T10:29:10;3.13;;;2.17;;
4517;SDS011;2271;49.464;11.070;2024-02-15T10:31:39;4.25;;;2.72;;
4517;SDS011;2271;49.464;11.070;2024-02-15T10:34:16;4.70;;;2.50;;
4517;SDS011;2271;49.464;11.070;2024-02-15T10:36:44;3.95;;;2.67;;
4517;SDS011;2271;49.464;11.070;2024-02-15T10:39:12;3.90;;;2.47;;
4517;SDS011;2271;49.464;11.070;2024-02-15T10:41:48;3.00;;;2.30;;
4517;SDS011;2271;49.464;11.070;2024-02-15T10:44:23;2.38;;;2.15;;
4517;SDS011;2271;49.464;11.070;2024-02-15T10:46:53;5.45;;;2.63;;
4517;SDS011;2271;49.464;11.070;2024-02-15T10:49:22;3.85;;;2.03;;
4517;SDS011;2271;49.464;11.070;2024-02-15T10:51:51;3.90;;;1.90;;
4517;SDS011;2271;49.464;11.070;2024-02-15T10:54:40;6.15;;;2.13;;
4517;SDS011;2271;49.464;11.070;2024-02-15T10:57:15;2.70;;;2.28;;
4517;SDS011;2271;49.464;11.070;2024-02-15T10:59:51;7.10;;;2.13;;
4517;SDS011;2271;49.464;11.070;2024-02-15T11:02:28;4.05;;;1.70;;
4517;SDS011;2271;49.464;11.070;2024-02-15T11:05:03;3.10;;;2.17;;
4517;SDS011;2271;49.464;11.070;2024-02-15T11:07:35;6.70;;;2.10;;
4517;SDS011;2271;49.464;11.070;2024-02-15T11:10:05;4.07;;;2.00;;
4517;SDS011;2271;49.464;11.070;2024-02-15T11:12:33;5.13;;;2.55;;
4517;SDS011;2271;49.464;11.070;2024-02-15T11:14:59;3.63;;;1.98;;
4517;SDS011;2271;49.464;11.070;2024-02-15T11:20:08;10.55;;;2.60;;
4517;SDS011;2271;49.464;11.070;2024-02-15T11:22:56;6.20;;;2.00;;
4517;SDS011;2271;49.464;11.070;2024-02-15T11:25:31;3.05;;;1.98;;
4517;SDS011;2271;49.464;11.070;2024-02-15T11:28:18;6.82;;;2.20;;
4517;SDS011;2271;49.464;11.070;2024-02-15T11:30:48;3.85;;;2.03;;
4517;SDS011;2271;49.464;11.070;2024-02-15T11:33:29;5.45;;;2.63;;
4517;SDS011;2271;49.464;11.070;2024-02-15T11:36:06;3.72;;;1.83;;
4517;SDS011;2271;49.464;11.070;2024-02-15T11:38:32;5.30;;;2.08;;
4517;SDS011;2271;49.464;11.070;2024-02-15T11:41:05;7.53;;;2.33;;
4517;SDS011;2271;49.464;11.070;2024-02-15T11:43:50;3.95;;;1.92;;
4517;SDS011;2271;49.464;11.070;2024-02-15T11:46:26;2.90;;;2.22;;
4517;SDS011;2271;49.464;11.070;2024-02-15T11:48:57;11.43;;;3.50;;
4517;SDS011;2271;49.464;11.070;2024-02-15T11:51:27;5.70;;;3.08;;
4517;SDS011;2271;49.464;11.070;2024-02-15T11:54:03;5.72;;;2.20;;
4517;SDS011;2271;49.464;11.070;2024-02-15T11:56:49;3.53;;;2.00;;
4517;SDS011;2271;49.464;11.070;2024-02-15T11:59:41;2.83;;;2.13;;
4517;SDS011;2271;49.464;11.070;2024-02-15T12:02:31;5.15;;;2.33;;
4517;SDS011;2271;49.464;11.070;2024-02-15T12:05:16;4.80;;;2.42;;
4517;SDS011;2271;49.464;11.070;2024-02-15T12:08:01;6.50;;;2.13;;
4517;SDS011;2271;49.464;11.070;2024-02-15T12:10:56;8.63;;;3.17;;
4517;SDS011;2271;49.464;11.070;2024-02-15T12:13:41;5.75;;;2.85;;
4517;SDS011;2271;49.464;11.070;2024-02-15T12:16:25;4.45;;;2.80;;
4517;SDS011;2271;49.464;11.070;2024-02-15T12:19:09;2.58;;;1.92;;
4517;SDS011;2271;49.464;11.070;2024-02-15T12:21:36;5.30;;;2.35;;
4517;SDS011;2271;49.464;11.070;2024-02-15T12:24:06;5.63;;;1.98;;
4517;SDS011;2271;49.464;11.070;2024-02-15T12:26:32;2.53;;;1.45;;
4517;SDS011;2271;49.464;11.070;2024-02-15T12:28:59;2.88;;;1.80;;
4517;SDS011;2271;49.464;11.070;2024-02-15T12:31:26;2.60;;;1.50;;
4517;SDS011;2271;49.464;11.070;2024-02-15T12:34:04;3.03;;;1.20;;
4517;SDS011;2271;49.464;11.070;2024-02-15T12:36:33;2.08;;;1.38;;
4517;SDS011;2271;49.464;11.070;2024-02-15T12:39:02;2.03;;;0.80;;
4517;SDS011;2271;49.464;11.070;2024-02-15T12:41:37;3.30;;;1.42;;
4517;SDS011;2271;49.464;11.070;2024-02-15T12:44:05;1.95;;;1.50;;
4517;SDS011;2271;49.464;11.070;2024-02-15T12:46:33;3.20;;;1.00;;
4517;SDS011;2271;49.464;11.070;2024-02-15T12:49:09;3.92;;;1.42;;
4517;SDS011;2271;49.464;11.070;2024-02-15T12:51:50;3.33;;;1.48;;
4517;SDS011;2271;49.464;11.070;2024-02-15T12:54:20;2.35;;;0.80;;
4517;SDS011;2271;49.464;11.070;2024-02-15T12:56:47;2.65;;;0.93;;
4517;SDS011;2271;49.464;11.070;2024-02-15T12:59:14;3.42;;;1.30;;
4517;SDS011;2271;49.464;11.070;2024-02-15T13:01:41;2.80;;;1.58;;
4517;SDS011;2271;49.464;11.070;2024-02-15T13:04:07;3.63;;;1.30;;
4517;SDS011;2271;49.464;11.070;2024-02-15T13:06:34;3.70;;;1.10;;
4517;SDS011;2271;49.464;11.070;2024-02-15T13:09:01;1.88;;;1.23;;
4517;SDS011;2271;49.464;11.070;2024-02-15T13:11:30;2.47;;;1.15;;
4517;SDS011;2271;49.464;11.070;2024-02-15T13:13:57;2.22;;;0.80;;
4517;SDS011;2271;49.464;11.070;2024-02-15T13:16:22;2.80;;;1.00;;
4517;SDS011;2271;49.464;11.070;2024-02-15T13:18:48;1.85;;;1.17;;
4517;SDS011;2271;49.464;11.070;2024-02-15T13:21:14;2.00;;;0.98;;
4517;SDS011;2271;49.464;11.070;2024-02-15T13:23:40;2.55;;;1.08;;
4517;SDS011;2271;49.464;11.070;2024-02-15T13:26:05;1.92;;;1.33;;
4517;SDS011;2271;49.464;11.070;2024-02-15T13:28:33;1.90;;;1.17;;
4517;SDS011;2271;49.464;11.070;2024-02-15T13:30:58;2.03;;;1.15;;
4517;SDS011;2271;49.464;11.070;2024-02-15T13:33:24;1.88;;;0.90;;
4517;SDS011;2271;49.464;11.070;2024-02-15T13:35:51;1.77;;;0.70;;
4517;SDS011;2271;49.464;11.070;2024-02-15T13:38:17;2.63;;;1.10;;
4517;SDS011;2271;49.464;11.070;2024-02-15T13:40:47;2.53;;;1.02;;
4517;SDS011;2271;49.464;11.070;2024-02-15T13:43:17;6.00;;;1.13;;
4517;SDS011;2271;49.464;11.070;2024-02-15T13:45:43;2.15;;;0.90;;
4517;SDS011;2271;49.464;11.070;2024-02-15T13:48:10;1.80;;;0.88;;
4517;SDS011;2271;49.464;11.070;2024-02-15T13:50:39;3.95;;;1.35;;
4517;SDS011;2271;49.464;11.070;2024-02-15T13:53:05;4.63;;;1.20;;
4517;SDS011;2271;49.464;11.070;2024-02-15T13:55:31;1.73;;;1.00;;
4517;SDS011;2271;49.464;11.070;2024-02-15T13:57:57;2.92;;;1.42;;
4517;SDS011;2271;49.464;11.070;2024-02-15T14:00:25;2.53;;;1.42;;
4517;SDS011;2271;49.464;11.070;2024-02-15T14:03:02;3.97;;;1.42;;
4517;SDS011;2271;49.464;11.070;2024-02-15T14:05:31;2.53;;;0.98;;
4517;SDS011;2271;49.464;11.070;2024-02-15T14:08:01;1.88;;;1.10;;
4517;SDS011;2271;49.464;11.070;2024-02-15T14:10:28;3.30;;;1.00;;
4517;SDS011;2271;49.464;11.070;2024-02-15T14:12:55;1.80;;;1.02;;
4517;SDS011;2271;49.464;11.070;2024-02-15T14:15:23;5.63;;;0.82;;
4517;SDS011;2271;49.464;11.070;2024-02-15T14:17:49;5.40;;;1.63;;
4517;SDS011;2271;49.464;11.070;2024-02-15T14:20:14;2.65;;;1.10;;
4517;SDS011;2271;49.464;11.070;2024-02-15T14:22:41;4.40;;;1.05;;
4517;SDS011;2271;49.464;11.070;2024-02-15T14:25:11;1.35;;;0.82;;
4517;SDS011;2271;49.464;11.070;2024-02-15T14:27:39;3.10;;;1.17;;
4517;SDS011;2271;49.464;11.070;2024-02-15T14:30:06;3.13;;;1.10;;
4517;SDS011;2271;49.464;11.070;2024-02-15T14:32:50;2.45;;;1.17;;
4517;SDS011;2271;49.464;11.070;2024-02-15T14:35:35;2.28;;;1.38;;
4517;SDS011;2271;49.464;11.070;2024-02-15T14:40:34;1.50;;;0.90;;
4517;SDS011;2271;49.464;11.070;2024-02-15T14:43:05;2.30;;;1.02;;
4517;SDS011;2271;49.464;11.070;2024-02-15T14:45:34;4.68;;;1.45;;
4517;SDS011;2271;49.464;11.070;2024-02-15T14:48:03;4.03;;;1.45;;
4517;SDS011;2271;49.464;11.070;2024-02-15T14:50:29;2.65;;;1.00;;
4517;SDS011;2271;49.464;11.070;2024-02-15T14:52:55;4.93;;;2.08;;
4517;SDS011;2271;49.464;11.070;2024-02-15T14:55:21;4.07;;;1.38;;
4517;SDS011;2271;49.464;11.070;2024-02-15T14:57:47;2.42;;;1.23;;
4517;SDS011;2271;49.464;11.070;2024-02-15T15:00:13;2.97;;;0.95;;
4517;SDS011;2271;49.464;11.070;2024-02-15T15:02:42;3.08;;;0.93;;
4517;SDS011;2271;49.464;11.070;2024-02-15T15:05:14;4.70;;;1.13;;
4517;SDS011;2271;49.464;11.070;2024-02-15T15:07:59;2.08;;;1.13;;
4517;SDS011;2271;49.464;11.070;2024-02-15T15:10:47;4.78;;;1.20;;
4517;SDS011;2271;49.464;11.070;2024-02-15T15:13:32;5.03;;;1.00;;
4517;SDS011;2271;49.464;11.070;2024-02-15T15:15:58;6.78;;;1.02;;
4517;SDS011;2271;49.464;11.070;2024-02-15T15:18:25;6.88;;;1.08;;